createdAt,value
2018-06-04T00:00:13.574Z,50.2
2018-06-04T00:01:15.240Z,56.8
2018-06-04T00:02:16.905Z,53.4
2018-06-04T00:03:18.563Z,54.2
2018-06-04T00:04:20.224Z,53.0
2018-06-04T00:05:21.877Z,49.9
2018-06-04T00:06:23.539Z,52.7
2018-06-04T00:07:25.194Z,55.6
2018-06-04T00:08:26.852Z,53.1
2018-06-04T00:09:28.510Z,51.7
2018-06-04T00:10:30.170Z,49.1
2018-06-04T00:11:31.829Z,49.0
2018-06-04T00:12:33.490Z,50.1
2018-06-04T00:13:35.150Z,47.0
2018-06-04T00:14:36.795Z,51.1
2018-06-04T00:15:38.483Z,46.4
2018-06-04T00:16:40.144Z,48.4
2018-06-04T00:17:41.819Z,52.5
2018-06-04T00:18:43.471Z,48.3
2018-06-04T00:19:45.122Z,50.3
2018-06-04T00:20:46.776Z,48.6
2018-06-04T00:21:48.442Z,48.8
2018-06-04T00:22:50.102Z,52.7
2018-06-04T00:23:51.771Z,47.6
2018-06-04T00:24:53.428Z,48.0
2018-06-04T00:25:55.087Z,45.6
2018-06-04T00:26:56.735Z,52.8
2018-06-04T00:27:58.384Z,50.9
2018-06-04T00:29:00.043Z,49.1
2018-06-04T00:30:01.748Z,48.9
2018-06-04T00:31:03.422Z,49.0
2018-06-04T00:32:05.084Z,49.1
2018-06-04T00:33:06.751Z,48.7
2018-06-04T00:34:08.409Z,47.2
2018-06-04T00:35:10.070Z,47.2
2018-06-04T00:36:11.723Z,47.7
2018-06-04T00:37:13.378Z,50.7
2018-06-04T00:38:15.032Z,43.6
2018-06-04T00:39:16.693Z,48.4
2018-06-04T00:40:18.353Z,47.2
2018-06-04T00:41:20.009Z,49.2
2018-06-04T00:42:21.667Z,46.5
2018-06-04T00:43:23.365Z,51.1
2018-06-04T00:44:25.025Z,51.4
2018-06-04T00:45:26.675Z,47.3
2018-06-04T00:46:28.325Z,45.2
2018-06-04T00:47:29.977Z,47.1
2018-06-04T00:48:31.687Z,52.2
2018-06-04T00:49:33.332Z,50.6
2018-06-04T00:50:35.007Z,49.3
2018-06-04T00:51:36.663Z,52.9
2018-06-04T00:52:38.332Z,50.4
2018-06-04T00:53:39.995Z,51.6
2018-06-04T00:54:41.661Z,48.7
2018-06-04T00:55:43.316Z,57.9
2018-06-04T00:56:44.972Z,52.3
2018-06-04T00:57:46.631Z,51.7
2018-06-04T00:58:48.284Z,49.4
2018-06-04T00:59:49.936Z,46.9
2018-06-04T01:00:51.614Z,51.9
2018-06-04T01:01:53.279Z,51.9
2018-06-04T01:02:54.943Z,50.4
2018-06-04T01:03:56.603Z,51.8
2018-06-04T01:04:58.275Z,54.4
2018-06-04T01:05:59.938Z,46.7
2018-06-04T01:07:01.593Z,48.1
2018-06-04T01:08:03.256Z,50.9
2018-06-04T01:09:04.913Z,52.9
2018-06-04T01:10:06.577Z,47.2
2018-06-04T01:11:08.236Z,52.3
2018-06-04T01:12:09.891Z,52.0
2018-06-04T01:13:11.550Z,55.4
2018-06-04T01:14:13.211Z,57.4
2018-06-04T01:15:14.856Z,50.5
2018-06-04T01:16:16.521Z,52.1
2018-06-04T01:17:18.173Z,51.4
2018-06-04T01:18:19.823Z,51.7
2018-06-04T01:19:21.478Z,53.5
2018-06-04T01:20:23.133Z,48.0
2018-06-04T01:21:24.787Z,55.9
2018-06-04T01:22:26.454Z,51.1
2018-06-04T01:23:28.111Z,52.6
2018-06-04T01:24:29.765Z,50.4
2018-06-04T01:25:31.420Z,45.8
2018-06-04T01:26:33.069Z,54.8
2018-06-04T01:27:34.730Z,51.5
2018-06-04T01:28:36.411Z,49.9
2018-06-04T01:29:38.101Z,51.7
2018-06-04T01:30:39.758Z,47.3
2018-06-04T01:31:41.431Z,49.3
2018-06-04T01:32:43.087Z,49.4
2018-06-04T01:33:44.734Z,48.6
2018-06-04T01:34:46.398Z,48.0
2018-06-04T01:35:48.063Z,44.7
2018-06-04T01:36:49.728Z,47.7
2018-06-04T01:37:51.385Z,47.2
2018-06-04T01:38:53.050Z,49.3
2018-06-04T01:39:54.692Z,42.4
2018-06-04T01:40:56.359Z,51.8
2018-06-04T01:41:58.000Z,48.1
2018-06-04T01:42:59.655Z,43.8
2018-06-04T01:44:01.306Z,42.1
2018-06-04T01:45:02.975Z,45.6
2018-06-04T01:46:04.619Z,45.6
2018-06-04T01:47:06.286Z,45.6
2018-06-04T01:48:07.936Z,45.9
2018-06-04T01:49:09.611Z,51.6
2018-06-04T01:50:11.271Z,48.8
2018-06-04T01:51:12.921Z,51.3
2018-06-04T01:52:14.587Z,46.5
2018-06-04T01:53:16.241Z,54.3
2018-06-04T01:54:17.888Z,49.1
2018-06-04T01:55:19.537Z,46.4
2018-06-04T02:01:32.676Z,39.6
2018-06-04T02:02:34.325Z,44.2
2018-06-04T02:03:35.974Z,51.3
2018-06-04T02:04:37.651Z,47.6
2018-06-04T02:05:39.307Z,49.4
2018-06-04T02:06:40.958Z,44.7
2018-06-04T02:07:42.614Z,43.2
2018-06-04T02:08:44.264Z,46.2
2018-06-04T02:09:45.912Z,48.7
2018-06-04T02:10:47.574Z,47.0
2018-06-04T02:11:49.231Z,44.0
2018-06-04T02:12:50.895Z,47.1
2018-06-04T02:13:52.555Z,42.5
2018-06-04T02:14:54.218Z,41.7
2018-06-04T02:15:55.872Z,44.4
2018-06-04T02:16:57.531Z,45.9
2018-06-04T02:17:59.173Z,47.6
2018-06-04T02:19:01.296Z,44.8
2018-06-04T02:20:02.429Z,40.3
2018-06-04T02:21:04.088Z,38.8
2018-06-04T02:22:05.745Z,44.8
2018-06-04T02:23:07.401Z,41.7
2018-06-04T02:24:09.057Z,43.5
2018-06-04T02:25:10.726Z,46.8
2018-06-04T02:26:12.374Z,43.5
2018-06-04T02:27:14.035Z,40.3
2018-06-04T02:28:15.694Z,44.2
2018-06-04T02:29:17.346Z,46.0
2018-06-04T02:30:19.005Z,47.6
2018-06-04T02:31:20.650Z,44.9
2018-06-04T02:32:22.324Z,45.2
2018-06-04T02:33:23.976Z,44.5
2018-06-04T02:34:25.646Z,47.0
2018-06-04T02:35:27.297Z,45.0
2018-06-04T02:36:28.957Z,40.1
2018-06-04T02:37:30.611Z,43.2
2018-06-04T02:38:32.259Z,41.3
2018-06-04T02:39:33.910Z,41.7
2018-06-04T02:40:35.581Z,39.9
2018-06-04T02:41:37.233Z,39.3
2018-06-04T02:42:38.887Z,37.7
2018-06-04T02:43:40.542Z,38.7
2018-06-04T02:44:42.204Z,44.6
2018-06-04T02:45:43.850Z,42.0
2018-06-04T02:46:45.538Z,45.4
2018-06-04T02:47:47.179Z,38.1
2018-06-04T02:48:48.836Z,44.6
2018-06-04T02:49:50.506Z,38.9
2018-06-04T02:50:52.145Z,40.8
2018-06-04T02:51:53.802Z,41.3
2018-06-04T02:52:55.466Z,44.6
2018-06-04T02:53:57.116Z,40.6
2018-06-04T02:54:58.775Z,41.5
2018-06-04T02:56:00.428Z,41.1
2018-06-04T02:57:02.079Z,45.1
2018-06-04T02:58:03.741Z,39.7
2018-06-04T02:59:05.400Z,41.0
2018-06-04T03:00:07.067Z,36.5
2018-06-04T03:01:08.752Z,37.9
2018-06-04T03:02:10.408Z,37.8
2018-06-04T03:03:12.074Z,40.3
2018-06-04T03:04:13.747Z,40.9
2018-06-04T03:05:15.419Z,37.4
2018-06-04T03:06:17.078Z,36.2
2018-06-04T03:07:18.731Z,35.6
2018-06-04T03:08:20.394Z,36.3
2018-06-04T03:09:22.063Z,36.3
2018-06-04T03:10:23.713Z,39.1
2018-06-04T03:11:25.373Z,39.5
2018-06-04T03:12:27.035Z,37.1
2018-06-04T03:13:28.704Z,38.3
2018-06-04T03:14:30.355Z,34.5
2018-06-04T03:15:32.017Z,36.1
2018-06-04T03:16:33.683Z,40.3
2018-06-04T03:17:35.347Z,38.4
2018-06-04T03:18:37.016Z,36.2
2018-06-04T03:19:38.676Z,38.6
2018-06-04T03:20:40.338Z,38.4
2018-06-04T03:21:41.989Z,38.7
2018-06-04T03:22:43.649Z,36.2
2018-06-04T03:23:45.304Z,42.2
2018-06-04T03:24:46.963Z,37.8
2018-06-04T03:25:48.626Z,38.7
2018-06-04T03:26:50.290Z,40.6
2018-06-04T03:27:51.961Z,39.7
2018-06-04T03:28:53.625Z,41.2
2018-06-04T03:29:55.282Z,41.7
2018-06-04T03:30:56.961Z,44.6
2018-06-04T03:31:58.609Z,43.3
2018-06-04T03:33:00.265Z,40.5
2018-06-04T03:34:01.924Z,43.8
2018-06-04T03:35:03.592Z,47.9
2018-06-04T03:36:05.250Z,47.6
2018-06-04T03:37:06.915Z,43.2
2018-06-04T03:38:08.575Z,46.9
2018-06-04T03:39:10.245Z,48.0
2018-06-04T03:40:11.905Z,48.7
2018-06-04T03:41:13.566Z,44.5
2018-06-04T03:42:15.220Z,47.5
2018-06-04T03:43:16.914Z,42.6
2018-06-04T03:44:18.577Z,53.6
2018-06-04T03:45:20.242Z,46.0
2018-06-04T03:46:21.892Z,60.6
2018-06-04T03:47:23.562Z,51.9
2018-06-04T03:48:25.218Z,51.5
2018-06-04T03:49:26.880Z,52.7
2018-06-04T03:50:28.537Z,49.5
2018-06-04T03:51:30.199Z,53.5
2018-06-04T03:52:31.863Z,52.1
2018-06-04T03:53:33.523Z,59.6
2018-06-04T03:54:35.174Z,59.0
2018-06-04T03:55:36.836Z,61.3
2018-06-04T03:56:38.497Z,64.1
2018-06-04T03:57:40.247Z,60.2
2018-06-04T03:58:41.904Z,68.6
2018-06-04T03:59:43.571Z,74.9
2018-06-04T04:00:45.232Z,74.1
2018-06-04T04:01:46.922Z,75.2
2018-06-04T04:02:48.561Z,73.0
2018-06-04T04:03:50.226Z,71.8
2018-06-04T04:04:51.888Z,71.6
2018-06-04T04:05:53.547Z,67.4
2018-06-04T04:06:55.208Z,68.3
2018-06-04T04:07:56.870Z,68.7
2018-06-04T04:08:58.537Z,63.7
2018-06-04T04:10:00.197Z,73.5
2018-06-04T04:11:01.863Z,72.2
2018-06-04T04:12:03.527Z,70.4
2018-06-04T04:13:05.177Z,81.3
2018-06-04T04:14:06.844Z,78.3
2018-06-04T04:15:08.503Z,66.8
2018-06-04T04:16:10.167Z,95.6
2018-06-04T04:17:11.825Z,82.1
2018-06-04T04:18:13.487Z,88.0
2018-06-04T04:19:15.161Z,101.5
2018-06-04T04:20:16.847Z,148.6
2018-06-04T04:21:18.503Z,119.2
2018-06-04T04:22:20.161Z,94.6
2018-06-04T04:23:21.837Z,101.7
2018-06-04T04:24:23.503Z,96.1
2018-06-04T04:25:25.162Z,105.3
2018-06-04T04:26:26.825Z,96.8
2018-06-04T04:27:28.485Z,95.1
2018-06-04T04:28:30.151Z,101.5
2018-06-04T04:29:31.817Z,90.5
2018-06-04T04:30:33.504Z,102.3
2018-06-04T04:31:35.163Z,96.8
2018-06-04T04:32:36.836Z,83.1
2018-06-04T04:33:38.495Z,100.4
2018-06-04T04:34:40.156Z,84.3
2018-06-04T04:35:41.821Z,85.4
2018-06-04T04:36:43.477Z,81.8
2018-06-04T04:37:45.331Z,75.9
2018-06-04T04:38:46.976Z,76.9
2018-06-04T04:39:48.652Z,78.3
2018-06-04T04:40:50.334Z,74.5
2018-06-04T04:41:52.009Z,72.1
2018-06-04T04:42:53.673Z,74.7
2018-06-04T04:43:55.334Z,72.4
2018-06-04T04:44:57.001Z,73.5
2018-06-04T04:45:58.671Z,82.7
2018-06-04T04:47:00.338Z,67.5
2018-06-04T04:48:02.007Z,69.7
2018-06-04T04:49:03.688Z,63.7
2018-06-04T04:50:05.350Z,65.6
2018-06-04T04:51:07.025Z,67.1
2018-06-04T04:52:09.409Z,58.7
2018-06-04T04:53:11.076Z,55.7
2018-06-04T04:54:12.744Z,57.8
2018-06-04T04:55:14.412Z,47.0
2018-06-04T04:56:16.069Z,50.1
2018-06-04T04:57:17.742Z,46.7
2018-06-04T04:58:19.465Z,49.0
2018-06-04T04:59:21.130Z,45.7
2018-06-04T05:00:22.806Z,43.8
2018-06-04T05:01:24.470Z,44.2
2018-06-04T05:02:26.145Z,44.8
2018-06-04T05:03:27.810Z,45.1
2018-06-04T05:04:29.485Z,39.0
2018-06-04T05:05:31.165Z,39.1
2018-06-04T05:06:32.835Z,33.1
2018-06-04T05:07:34.929Z,35.5
2018-06-04T05:08:36.596Z,34.0
2018-06-04T05:09:38.259Z,31.5
2018-06-04T05:10:39.971Z,31.5
2018-06-04T05:11:41.646Z,29.9
2018-06-04T05:12:43.303Z,30.4
2018-06-04T05:13:44.994Z,27.6
2018-06-04T05:14:46.667Z,29.9
2018-06-04T05:15:48.334Z,28.6
2018-06-04T05:16:50.041Z,28.5
2018-06-04T05:17:51.695Z,28.5
2018-06-04T05:18:53.438Z,24.0
2018-06-04T05:19:55.022Z,25.3
2018-06-04T05:20:56.693Z,24.9
2018-06-04T05:21:58.366Z,24.1
2018-06-04T05:23:00.029Z,27.4
2018-06-04T05:24:01.789Z,27.5
2018-06-04T05:25:03.459Z,28.6
2018-06-04T05:26:05.115Z,26.0
2018-06-04T05:27:06.786Z,24.8
2018-06-04T05:28:08.453Z,26.0
2018-06-04T05:29:10.124Z,27.1
2018-06-04T05:30:11.788Z,25.5
2018-06-04T05:31:13.528Z,26.2
2018-06-04T05:32:15.194Z,27.0
2018-06-04T05:33:16.857Z,28.9
2018-06-04T05:34:18.526Z,28.1
2018-06-04T05:35:20.192Z,25.9
2018-06-04T05:36:21.855Z,25.0
2018-06-04T05:37:23.531Z,22.8
2018-06-04T05:38:25.208Z,22.5
2018-06-04T05:39:26.906Z,21.3
2018-06-04T05:40:28.583Z,19.7
2018-06-04T05:41:30.270Z,21.7
2018-06-04T05:42:31.966Z,21.2
2018-06-04T05:43:33.643Z,22.7
2018-06-04T05:44:35.316Z,18.7
2018-06-04T05:45:36.985Z,21.2
2018-06-04T05:46:38.641Z,20.4
2018-06-04T05:47:40.299Z,21.7
2018-06-04T05:48:41.980Z,20.3
2018-06-04T05:49:43.642Z,19.1
2018-06-04T05:50:45.306Z,19.1
2018-06-04T05:51:46.980Z,18.4
2018-06-04T05:52:48.658Z,18.1
2018-06-04T05:53:50.334Z,18.7
2018-06-04T05:54:52.001Z,22.3
2018-06-04T06:01:14.163Z,18.1
2018-06-04T06:02:15.835Z,16.1
2018-06-04T06:03:17.502Z,17.6
2018-06-04T06:04:19.161Z,16.4
2018-06-04T06:05:20.830Z,17.8
2018-06-04T06:06:22.488Z,16.2
2018-06-04T06:07:24.165Z,16.5
2018-06-04T06:08:25.832Z,17.2
2018-06-04T06:09:27.492Z,20.2
2018-06-04T06:10:29.151Z,18.6
2018-06-04T06:11:30.820Z,18.4
2018-06-04T06:12:32.491Z,19.2
2018-06-04T06:13:34.156Z,19.5
2018-06-04T06:14:35.828Z,18.8
2018-06-04T06:15:37.520Z,17.6
2018-06-04T06:16:39.192Z,16.7
2018-06-04T06:17:40.853Z,16.3
2018-06-04T06:18:42.530Z,15.9
2018-06-04T06:19:44.196Z,15.0
2018-06-04T06:20:45.854Z,18.0
2018-06-04T06:21:47.540Z,14.5
2018-06-04T06:22:49.212Z,16.6
2018-06-04T06:23:50.890Z,16.8
2018-06-04T06:24:52.612Z,15.5
2018-06-04T06:25:54.277Z,16.6
2018-06-04T06:26:55.945Z,15.8
2018-06-04T06:27:57.631Z,14.5
2018-06-04T06:28:59.314Z,12.6
2018-06-04T06:30:01.008Z,13.7
2018-06-04T06:31:02.676Z,13.9
2018-06-04T06:32:04.356Z,14.8
2018-06-04T06:33:06.031Z,15.8
2018-06-04T06:34:07.710Z,13.8
2018-06-04T06:35:09.379Z,13.9
2018-06-04T06:36:11.065Z,13.1
2018-06-04T06:37:12.734Z,13.7
2018-06-04T06:38:14.408Z,13.3
2018-06-04T06:39:16.822Z,13.0
2018-06-04T06:40:18.490Z,12.0
2018-06-04T06:41:20.173Z,12.9
2018-06-04T06:42:21.840Z,12.2
2018-06-04T06:43:23.519Z,13.0
2018-06-04T06:44:25.190Z,12.2
2018-06-04T06:45:26.867Z,12.4
2018-06-04T06:46:28.540Z,12.8
2018-06-04T06:47:30.229Z,13.3
2018-06-04T06:48:31.908Z,13.1
2018-06-04T06:49:33.585Z,12.6
2018-06-04T06:50:35.274Z,12.3
2018-06-04T06:51:36.932Z,11.6
2018-06-04T06:52:38.630Z,12.3
2018-06-04T06:53:40.301Z,12.1
2018-06-04T06:54:42.007Z,15.7
2018-06-04T06:55:43.671Z,12.1
2018-06-04T06:56:45.364Z,13.1
2018-06-04T06:57:47.058Z,12.8
2018-06-04T06:58:48.737Z,12.5
2018-06-04T06:59:50.422Z,13.4
2018-06-04T07:00:52.093Z,15.6
2018-06-04T07:01:53.844Z,12.8
2018-06-04T07:02:55.471Z,13.8
2018-06-04T07:03:57.166Z,13.9
2018-06-04T07:04:58.857Z,12.9
2018-06-04T07:06:00.517Z,12.5
2018-06-04T07:07:02.197Z,12.9
2018-06-04T07:08:03.868Z,13.6
2018-06-04T07:09:05.548Z,12.5
2018-06-04T07:10:07.228Z,16.3
2018-06-04T07:11:08.910Z,13.4
2018-06-04T07:12:10.592Z,13.7
2018-06-04T07:13:12.271Z,13.7
2018-06-04T07:14:14.063Z,13.5
2018-06-04T07:15:15.711Z,14.6
2018-06-04T07:16:17.431Z,13.2
2018-06-04T07:17:19.110Z,12.7
2018-06-04T07:18:20.782Z,13.7
2018-06-04T07:19:22.451Z,13.4
2018-06-04T07:20:24.160Z,13.5
2018-06-04T07:21:25.895Z,12.3
2018-06-04T07:22:27.488Z,12.7
2018-06-04T07:23:29.220Z,12.9
2018-06-04T07:24:30.905Z,13.4
2018-06-04T07:25:32.617Z,13.0
2018-06-04T07:26:34.295Z,13.8
2018-06-04T07:27:35.974Z,15.0
2018-06-04T07:28:37.673Z,15.0
2018-06-04T07:29:39.358Z,14.0
2018-06-04T07:30:41.029Z,16.4
2018-06-04T07:31:42.711Z,14.8
2018-06-04T07:32:44.473Z,15.1
2018-06-04T07:33:46.145Z,18.1
2018-06-04T07:34:47.839Z,14.1
2018-06-04T07:35:49.511Z,14.1
2018-06-04T07:36:51.184Z,13.1
2018-06-04T07:37:52.868Z,14.5
2018-06-04T07:38:54.545Z,13.4
2018-06-04T07:39:56.229Z,17.3
2018-06-04T07:40:57.912Z,13.5
2018-06-04T07:41:59.590Z,12.4
2018-06-04T07:43:01.258Z,12.5
2018-06-04T07:44:02.946Z,11.3
2018-06-04T07:45:04.624Z,11.9
2018-06-04T07:46:06.323Z,12.5
2018-06-04T07:47:08.003Z,12.8
2018-06-04T07:48:09.681Z,12.3
2018-06-04T07:49:11.359Z,11.7
2018-06-04T07:50:13.039Z,12.5
2018-06-04T07:51:14.722Z,13.2
2018-06-04T07:52:16.408Z,11.3
2018-06-04T07:53:18.088Z,11.1
2018-06-04T07:54:19.769Z,13.1
2018-06-04T07:55:21.452Z,12.0
2018-06-04T07:56:23.139Z,11.4
2018-06-04T07:57:24.829Z,11.3
2018-06-04T07:58:26.503Z,10.7
2018-06-04T07:59:28.177Z,11.4
2018-06-04T08:00:29.919Z,11.0
2018-06-04T08:01:31.614Z,11.5
2018-06-04T08:02:33.295Z,11.3
2018-06-04T08:03:34.988Z,10.4
2018-06-04T08:04:36.672Z,11.8
2018-06-04T08:05:38.382Z,10.8
2018-06-04T08:06:40.061Z,10.9
2018-06-04T08:07:41.751Z,11.5
2018-06-04T08:08:43.441Z,10.8
2018-06-04T08:09:45.133Z,10.5
2018-06-04T08:10:46.826Z,12.3
2018-06-04T08:11:48.495Z,10.6
2018-06-04T08:12:50.184Z,12.3
2018-06-04T08:13:51.849Z,12.0
2018-06-04T08:14:53.539Z,10.9
2018-06-04T08:15:55.228Z,12.8
2018-06-04T08:16:56.944Z,11.3
2018-06-04T08:17:58.632Z,11.7
2018-06-04T08:19:00.263Z,13.6
2018-06-04T08:20:01.944Z,9.9
2018-06-04T08:21:03.647Z,10.4
2018-06-04T08:22:05.329Z,10.4
2018-06-04T08:23:07.014Z,9.7
2018-06-04T08:24:08.851Z,10.9
2018-06-04T08:25:10.530Z,10.5
2018-06-04T08:26:12.211Z,11.1
2018-06-04T08:27:13.892Z,10.0
2018-06-04T08:28:15.577Z,10.3
2018-06-04T08:29:17.316Z,11.8
2018-06-04T08:30:18.973Z,9.3
2018-06-04T08:31:20.621Z,9.8
2018-06-04T08:32:22.301Z,10.2
2018-06-04T08:33:23.989Z,10.3
2018-06-04T08:34:25.670Z,10.9
2018-06-04T08:35:27.350Z,10.6
2018-06-04T08:36:29.039Z,13.9
2018-06-04T08:37:30.714Z,11.7
2018-06-04T08:38:32.444Z,11.2
2018-06-04T08:39:34.039Z,11.2
2018-06-04T08:40:35.764Z,11.1
2018-06-04T08:41:37.472Z,10.5
2018-06-04T08:42:39.137Z,10.4
2018-06-04T08:43:40.844Z,10.4
2018-06-04T08:44:42.534Z,10.3
2018-06-04T08:45:44.315Z,10.4
2018-06-04T08:46:45.996Z,10.0
2018-06-04T08:47:47.672Z,11.6
2018-06-04T08:48:49.375Z,10.0
2018-06-04T08:49:51.051Z,9.6
2018-06-04T08:50:52.856Z,9.2
2018-06-04T08:51:54.486Z,10.0
2018-06-04T08:52:56.178Z,9.4
2018-06-04T08:53:57.894Z,9.8
2018-06-04T08:54:59.539Z,9.2
2018-06-04T08:56:01.232Z,9.4
2018-06-04T08:57:02.970Z,10.0
2018-06-04T08:58:04.592Z,9.6
2018-06-04T08:59:06.270Z,10.4
2018-06-04T09:00:07.967Z,11.8
2018-06-04T09:01:09.658Z,10.2
2018-06-04T09:02:11.347Z,10.3
2018-06-04T09:03:13.130Z,11.0
2018-06-04T09:04:14.877Z,10.8
2018-06-04T09:05:16.589Z,10.3
2018-06-04T09:06:18.268Z,10.0
2018-06-04T09:07:19.947Z,10.5
2018-06-04T09:08:21.684Z,9.9
2018-06-04T09:09:23.370Z,12.3
2018-06-04T09:10:25.078Z,9.8
2018-06-04T09:11:26.753Z,10.3
2018-06-04T09:12:28.441Z,9.3
2018-06-04T09:13:30.139Z,11.5
2018-06-04T09:14:31.830Z,11.1
2018-06-04T09:15:33.508Z,9.7
2018-06-04T09:16:35.209Z,10.5
2018-06-04T09:17:37.261Z,10.2
2018-06-04T09:18:38.949Z,10.4
2018-06-04T09:19:40.679Z,9.8
2018-06-04T09:20:42.364Z,10.6
2018-06-04T09:21:44.101Z,10.1
2018-06-04T09:22:45.766Z,9.8
2018-06-04T09:23:47.455Z,9.0
2018-06-04T09:24:49.132Z,11.5
2018-06-04T09:25:50.814Z,9.5
2018-06-04T09:26:52.507Z,9.9
2018-06-04T09:27:54.218Z,13.8
2018-06-04T09:28:55.897Z,11.5
2018-06-04T09:29:57.774Z,11.3
2018-06-04T09:30:59.470Z,11.1
2018-06-04T09:32:01.140Z,11.4
2018-06-04T09:33:02.899Z,12.2
2018-06-04T09:34:04.626Z,10.4
2018-06-04T09:35:06.311Z,11.7
2018-06-04T09:36:07.990Z,12.2
2018-06-04T09:37:09.675Z,11.3
2018-06-04T09:38:11.351Z,11.7
2018-06-04T09:39:13.033Z,13.6
2018-06-04T09:40:14.703Z,12.5
2018-06-04T09:41:16.390Z,11.0
2018-06-04T09:42:18.068Z,10.6
2018-06-04T09:43:19.751Z,12.0
2018-06-04T09:44:21.427Z,12.0
2018-06-04T09:45:23.103Z,10.6
2018-06-04T09:46:24.779Z,12.8
2018-06-04T09:47:26.510Z,11.4
2018-06-04T09:48:28.192Z,15.1
2018-06-04T09:49:29.844Z,9.2
2018-06-04T09:50:31.515Z,10.5
2018-06-04T09:51:33.203Z,10.4
2018-06-04T09:52:34.899Z,9.0
2018-06-04T09:53:36.564Z,11.3
2018-06-04T09:54:38.275Z,10.2
2018-06-04T09:55:39.955Z,10.1
2018-06-04T10:02:03.755Z,9.4
2018-06-04T10:03:05.443Z,10.0
2018-06-04T10:04:57.487Z,9.8
2018-06-04T10:05:59.165Z,8.0
2018-06-04T10:07:00.861Z,8.8
2018-06-04T10:08:02.581Z,7.8
2018-06-04T10:09:04.279Z,8.9
2018-06-04T10:10:05.960Z,8.2
2018-06-04T10:11:07.650Z,8.4
2018-06-04T10:12:09.338Z,8.2
2018-06-04T10:13:11.023Z,7.1
2018-06-04T10:14:12.709Z,7.1
2018-06-04T10:15:14.376Z,6.8
2018-06-04T10:16:16.060Z,6.8
2018-06-04T10:17:17.752Z,6.4
2018-06-04T10:18:19.489Z,8.0
2018-06-04T10:19:21.172Z,7.6
2018-06-04T10:20:22.862Z,7.8
2018-06-04T10:21:24.542Z,7.7
2018-06-04T10:22:26.412Z,7.6
2018-06-04T10:23:27.885Z,7.1
2018-06-04T10:24:29.595Z,7.3
2018-06-04T10:25:31.292Z,7.4
2018-06-04T10:26:32.973Z,8.9
2018-06-04T10:27:34.676Z,8.8
2018-06-04T10:28:36.354Z,8.4
2018-06-04T10:29:38.083Z,7.7
2018-06-04T10:30:39.763Z,8.5
2018-06-04T10:31:42.419Z,8.2
2018-06-04T10:32:44.087Z,8.4
2018-06-04T10:33:45.793Z,8.5
2018-06-04T10:34:47.472Z,8.0
2018-06-04T10:35:49.175Z,7.6
2018-06-04T10:36:50.854Z,7.0
2018-06-04T10:37:52.547Z,7.4
2018-06-04T10:38:54.225Z,6.6
2018-06-04T10:39:55.917Z,8.5
2018-06-04T10:40:57.611Z,8.6
2018-06-04T10:41:59.279Z,6.7
2018-06-04T10:43:00.980Z,8.2
2018-06-04T10:44:02.663Z,7.0
2018-06-04T10:45:04.368Z,7.6
2018-06-04T10:46:06.070Z,8.6
2018-06-04T10:47:07.765Z,8.1
2018-06-04T10:48:09.449Z,8.7
2018-06-04T10:49:11.156Z,7.7
2018-06-04T10:50:12.838Z,8.3
2018-06-04T10:51:14.522Z,9.8
2018-06-04T10:52:16.214Z,10.0
2018-06-04T10:53:17.889Z,10.2
2018-06-04T10:54:19.586Z,10.2
2018-06-04T10:55:21.283Z,9.5
2018-06-04T10:56:22.982Z,11.4
2018-06-04T10:57:24.661Z,11.2
2018-06-04T10:58:26.348Z,10.5
2018-06-04T10:59:28.035Z,12.5
2018-06-04T11:00:29.807Z,12.5
2018-06-04T11:01:32.066Z,10.2
2018-06-04T11:02:33.146Z,12.5
2018-06-04T11:03:34.837Z,10.3
2018-06-04T11:04:36.518Z,11.1
2018-06-04T14:01:37.919Z,10.1
2018-06-04T14:02:39.587Z,10.7
2018-06-04T14:03:41.271Z,11.6
2018-06-04T14:04:42.935Z,10.5
2018-06-04T14:05:44.603Z,9.9
2018-06-04T14:06:46.274Z,11.6
2018-06-04T14:07:47.942Z,11.6
2018-06-04T14:08:49.657Z,11.4
2018-06-04T14:09:51.285Z,10.9
2018-06-04T14:10:52.968Z,12.4
2018-06-04T14:11:54.639Z,11.2
2018-06-04T14:12:56.315Z,10.7
2018-06-04T14:13:57.983Z,14.2
2018-06-04T14:14:59.668Z,12.0
2018-06-04T14:16:01.386Z,12.8
2018-06-04T14:17:03.056Z,12.7
2018-06-04T14:18:04.800Z,11.3
2018-06-04T14:19:06.505Z,13.0
2018-06-04T14:20:08.168Z,9.4
2018-06-04T14:21:09.852Z,11.9
2018-06-04T14:22:11.533Z,11.2
2018-06-04T14:23:13.211Z,11.2
2018-06-04T14:24:14.885Z,11.8
2018-06-04T14:25:16.541Z,10.3
2018-06-04T14:26:18.331Z,11.5
2018-06-04T14:27:19.998Z,10.0
2018-06-04T14:28:21.702Z,8.8
2018-06-04T14:29:23.380Z,10.3
2018-06-04T14:30:25.091Z,9.6
2018-06-04T14:31:27.017Z,12.1
2018-06-04T14:32:28.812Z,9.9
2018-06-04T14:33:30.564Z,10.5
2018-06-04T14:34:32.246Z,9.8
2018-06-04T14:35:33.915Z,9.8
2018-06-04T14:36:35.596Z,8.3
2018-06-04T14:37:37.278Z,9.2
2018-06-04T14:38:38.956Z,9.1
2018-06-04T14:39:40.638Z,11.8
2018-06-04T14:40:42.345Z,9.7
2018-06-04T14:41:44.025Z,10.2
2018-06-04T14:42:45.698Z,11.1
2018-06-04T14:43:47.421Z,11.8
2018-06-04T14:44:49.097Z,10.0
2018-06-04T14:45:50.911Z,9.0
2018-06-04T14:46:52.582Z,11.9
2018-06-04T14:47:54.274Z,11.0
2018-06-04T14:48:55.958Z,12.4
2018-06-04T14:49:57.635Z,9.9
2018-06-04T14:50:59.306Z,8.8
2018-06-04T14:52:00.972Z,10.5
2018-06-04T14:53:04.035Z,11.9
2018-06-04T14:54:05.726Z,13.6
2018-06-04T14:55:08.652Z,10.8
2018-06-04T14:56:10.302Z,10.7
2018-06-04T14:57:12.740Z,13.2
2018-06-04T14:58:15.193Z,8.5
2018-06-04T14:59:16.881Z,10.5
2018-06-04T15:00:18.563Z,11.4
2018-06-04T15:01:20.233Z,13.3
2018-06-04T15:02:21.894Z,11.2
2018-06-04T15:03:23.570Z,14.8
2018-06-04T15:04:27.121Z,10.6
2018-06-04T15:05:28.664Z,11.8
2018-06-04T15:06:31.406Z,13.0
2018-06-04T15:07:33.130Z,9.8
2018-06-04T15:08:35.020Z,10.3
2018-06-04T15:09:36.803Z,9.3
2018-06-04T15:10:39.996Z,11.5
2018-06-04T15:11:41.988Z,9.2
2018-06-04T15:12:45.302Z,12.4
2018-06-04T15:13:48.776Z,10.3
2018-06-04T15:14:50.563Z,11.5
2018-06-04T15:15:52.340Z,11.6
2018-06-04T15:16:54.156Z,9.4
2018-06-04T15:17:55.960Z,11.5
2018-06-04T15:18:57.794Z,9.5
2018-06-04T15:20:01.659Z,12.1
2018-06-04T15:21:06.207Z,11.0
2018-06-04T15:22:07.946Z,8.5
2018-06-04T15:23:09.740Z,11.3
2018-06-04T15:24:13.480Z,9.0
2018-06-04T15:25:16.556Z,10.8
2018-06-04T15:26:18.303Z,8.8
2018-06-04T15:27:20.528Z,9.7
2018-06-04T15:28:22.281Z,11.5
2018-06-04T15:29:24.200Z,9.8
2018-06-04T15:30:25.824Z,10.2
2018-06-04T15:31:27.611Z,12.1
2018-06-04T15:32:30.803Z,10.3
2018-06-04T15:33:32.589Z,9.3
2018-06-04T15:34:34.322Z,10.5
2018-06-04T15:35:36.895Z,8.2
2018-06-04T15:36:38.679Z,12.3
2018-06-04T15:37:40.520Z,10.4
2018-06-04T15:38:42.116Z,11.3
2018-06-04T15:39:43.920Z,9.2
2018-06-04T15:40:45.692Z,9.9
2018-06-04T15:41:47.721Z,10.5
2018-06-04T15:42:49.436Z,9.5
2018-06-04T15:43:51.172Z,9.6
2018-06-04T15:44:52.745Z,12.5
2018-06-04T15:45:54.427Z,10.7
2018-06-04T15:46:56.079Z,14.7
2018-06-04T15:47:58.085Z,9.7
2018-06-04T15:48:59.773Z,10.3
2018-06-04T15:50:01.447Z,9.3
2018-06-04T15:51:03.131Z,13.4
2018-06-04T15:52:04.809Z,11.0
2018-06-04T15:53:07.232Z,9.5
2018-06-04T15:54:11.027Z,9.7
2018-06-04T15:55:12.775Z,11.9
2018-06-04T15:56:14.455Z,10.4
2018-06-04T15:57:16.187Z,10.4
2018-06-04T15:58:18.254Z,10.5
2018-06-04T15:59:22.292Z,8.8
2018-06-04T16:00:24.260Z,11.5
2018-06-04T16:01:25.864Z,9.0
2018-06-04T16:02:27.616Z,10.2
2018-06-04T16:03:29.433Z,10.0
2018-06-04T16:04:32.872Z,8.5
2018-06-04T16:05:34.640Z,8.8
2018-06-04T16:06:36.340Z,9.7
2018-06-04T16:07:38.350Z,11.3
2018-06-04T16:08:40.175Z,11.6
2018-06-04T16:09:41.939Z,9.0
2018-06-04T16:10:43.665Z,14.8
2018-06-04T16:11:45.385Z,8.4
2018-06-04T16:12:49.243Z,9.7
2018-06-04T16:13:51.021Z,8.9
2018-06-04T16:14:52.798Z,9.0
2018-06-04T16:15:54.621Z,9.8
2018-06-04T16:16:56.378Z,10.1
2018-06-04T16:17:58.147Z,9.6
2018-06-04T16:19:00.597Z,9.1
2018-06-04T16:20:02.940Z,11.3
2018-06-04T16:21:04.695Z,12.1
2018-06-04T16:22:06.491Z,10.4
2018-06-04T16:23:08.253Z,9.0
2018-06-04T16:24:10.064Z,11.0
2018-06-04T16:25:11.815Z,8.1
2018-06-04T16:26:13.629Z,10.2
2018-06-04T16:27:15.383Z,10.5
2018-06-04T16:28:17.668Z,7.6
2018-06-04T16:29:21.692Z,9.9
2018-06-04T16:30:26.600Z,10.9
2018-06-04T16:31:28.401Z,12.0
2018-06-04T16:32:31.186Z,9.6
2018-06-04T16:33:32.982Z,9.0
2018-06-04T16:34:34.759Z,10.0
2018-06-04T16:35:36.604Z,11.9
2018-06-04T16:36:38.429Z,11.8
2018-06-04T16:37:40.188Z,9.3
2018-06-04T16:38:43.120Z,9.8
2018-06-04T16:39:45.130Z,9.7
2018-06-04T16:40:48.925Z,9.5
2018-06-04T16:41:50.954Z,12.1
2018-06-04T16:42:54.255Z,10.2
2018-06-04T16:43:57.200Z,10.5
2018-06-04T16:44:59.113Z,8.9
2018-06-04T16:46:00.746Z,10.5
2018-06-04T16:47:02.496Z,14.3
2018-06-04T16:48:04.303Z,11.2
2018-06-04T16:49:06.389Z,11.6
2018-06-04T16:50:08.226Z,12.5
2018-06-04T16:51:09.942Z,12.5
2018-06-04T16:52:11.800Z,11.8
2018-06-04T16:53:13.593Z,11.1
2018-06-04T16:54:15.473Z,13.2
2018-06-04T16:55:17.214Z,13.5
2018-06-04T16:56:19.001Z,11.8
2018-06-04T16:57:20.735Z,12.5
2018-06-04T16:58:22.586Z,13.2